sensor_id;sensor_type;location;lat;lon;timestamp;P1;durP1;ratioP1;P2;durP2;ratioP2
10416;SDS011;62605;49.432;8.680;2023-12-20T00:02:19;5.03;;;3.57;;
10416;SDS011;62605;49.432;8.680;2023-12-20T00:04:46;4.97;;;2.70;;
10416;SDS011;62605;49.432;8.680;2023-12-20T00:07:14;4.27;;;3.43;;
10416;SDS011;62605;49.432;8.680;2023-12-20T00:09:42;4.03;;;2.90;;
10416;SDS011;62605;49.432;8.680;2023-12-20T00:12:09;6.27;;;3.57;;
10416;SDS011;62605;49.432;8.680;2023-12-20T00:14:36;3.83;;;3.27;;
10416;SDS011;62605;49.432;8.680;2023-12-20T00:17:05;4.90;;;2.97;;
10416;SDS011;62605;49.432;8.680;2023-12-20T00:22:55;4.60;;;3.07;;
10416;SDS011;62605;49.432;8.680;2023-12-20T00:25:30;4.67;;;3.27;;
10416;SDS011;62605;49.432;8.680;2023-12-20T00:41:28;4.47;;;3.27;;
10416;SDS011;62605;49.432;8.680;2023-12-20T00:44:02;6.20;;;3.13;;
10416;SDS011;62605;49.432;8.680;2023-12-20T00:46:45;3.77;;;2.73;;
10416;SDS011;62605;49.432;8.680;2023-12-20T00:49:14;4.67;;;3.27;;
10416;SDS011;62605;49.432;8.680;2023-12-20T00:51:41;4.47;;;2.83;;
10416;SDS011;62605;49.432;8.680;2023-12-20T00:54:11;4.17;;;2.53;;
10416;SDS011;62605;49.432;8.680;2023-12-20T01:00:02;4.37;;;3.07;;
10416;SDS011;62605;49.432;8.680;2023-12-20T01:02:33;3.93;;;2.90;;
10416;SDS011;62605;49.432;8.680;2023-12-20T01:11:18;4.07;;;3.17;;
10416;SDS011;62605;49.432;8.680;2023-12-20T01:30:54;4.60;;;2.57;;
10416;SDS011;62605;49.432;8.680;2023-12-20T01:46:47;2.57;;;2.10;;
10416;SDS011;62605;49.432;8.680;2023-12-20T01:49:17;2.57;;;2.10;;
10416;SDS011;62605;49.432;8.680;2023-12-20T01:51:45;4.77;;;2.53;;
10416;SDS011;62605;49.432;8.680;2023-12-20T01:54:13;3.00;;;2.10;;
10416;SDS011;62605;49.432;8.680;2023-12-20T01:56:43;3.63;;;2.40;;
10416;SDS011;62605;49.432;8.680;2023-12-20T02:02:34;3.13;;;2.20;;
10416;SDS011;62605;49.432;8.680;2023-12-20T02:11:36;3.27;;;2.20;;
10416;SDS011;62605;49.432;8.680;2023-12-20T02:14:03;4.40;;;2.50;;
10416;SDS011;62605;49.432;8.680;2023-12-20T02:16:31;4.97;;;2.30;;
10416;SDS011;62605;49.432;8.680;2023-12-20T02:19:00;4.07;;;2.10;;
10416;SDS011;62605;49.432;8.680;2023-12-20T02:21:33;4.77;;;2.53;;
10416;SDS011;62605;49.432;8.680;2023-12-20T02:24:00;4.70;;;2.70;;
10416;SDS011;62605;49.432;8.680;2023-12-20T02:26:28;4.07;;;2.00;;
10416;SDS011;62605;49.432;8.680;2023-12-20T02:28:55;3.23;;;2.47;;
10416;SDS011;62605;49.432;8.680;2023-12-20T03:09:50;4.40;;;2.07;;
10416;SDS011;62605;49.432;8.680;2023-12-20T03:28:29;2.43;;;1.90;;
10416;SDS011;62605;49.432;8.680;2023-12-20T03:30:57;3.53;;;2.23;;
10416;SDS011;62605;49.432;8.680;2023-12-20T03:33:24;3.17;;;2.07;;
10416;SDS011;62605;49.432;8.680;2023-12-20T03:35:52;4.10;;;2.50;;
10416;SDS011;62605;49.432;8.680;2023-12-20T03:38:19;2.33;;;1.93;;
10416;SDS011;62605;49.432;8.680;2023-12-20T03:40:49;3.33;;;2.07;;
10416;SDS011;62605;49.432;8.680;2023-12-20T03:43:16;1.73;;;1.63;;
10416;SDS011;62605;49.432;8.680;2023-12-20T03:45:45;3.73;;;2.10;;
10416;SDS011;62605;49.432;8.680;2023-12-20T03:48:14;3.10;;;2.20;;
10416;SDS011;62605;49.432;8.680;2023-12-20T03:50:41;3.73;;;2.20;;
10416;SDS011;62605;49.432;8.680;2023-12-20T03:53:08;2.30;;;2.00;;
10416;SDS011;62605;49.432;8.680;2023-12-20T03:55:36;3.53;;;2.33;;
10416;SDS011;62605;49.432;8.680;2023-12-20T03:58:03;3.23;;;2.17;;
10416;SDS011;62605;49.432;8.680;2023-12-20T04:00:30;2.77;;;1.87;;
10416;SDS011;62605;49.432;8.680;2023-12-20T04:02:59;2.03;;;1.83;;
10416;SDS011;62605;49.432;8.680;2023-12-20T04:05:26;3.37;;;2.30;;
10416;SDS011;62605;49.432;8.680;2023-12-20T04:07:54;2.50;;;1.70;;
10416;SDS011;62605;49.432;8.680;2023-12-20T04:10:21;2.83;;;2.20;;
10416;SDS011;62605;49.432;8.680;2023-12-20T04:12:48;2.83;;;2.17;;
10416;SDS011;62605;49.432;8.680;2023-12-20T04:15:16;2.27;;;1.83;;
10416;SDS011;62605;49.432;8.680;2023-12-20T04:17:43;2.53;;;1.80;;
10416;SDS011;62605;49.432;8.680;2023-12-20T04:20:12;2.03;;;1.70;;
10416;SDS011;62605;49.432;8.680;2023-12-20T04:22:39;1.90;;;1.77;;
10416;SDS011;62605;49.432;8.680;2023-12-20T04:25:08;2.87;;;2.20;;
10416;SDS011;62605;49.432;8.680;2023-12-20T04:27:35;2.87;;;1.70;;
10416;SDS011;62605;49.432;8.680;2023-12-20T04:30:03;2.87;;;1.67;;
10416;SDS011;62605;49.432;8.680;2023-12-20T04:32:31;2.77;;;2.40;;
10416;SDS011;62605;49.432;8.680;2023-12-20T04:34:58;1.93;;;1.83;;
10416;SDS011;62605;49.432;8.680;2023-12-20T04:37:27;2.47;;;1.73;;
10416;SDS011;62605;49.432;8.680;2023-12-20T04:39:55;1.73;;;1.63;;
10416;SDS011;62605;49.432;8.680;2023-12-20T04:42:23;2.30;;;2.10;;
10416;SDS011;62605;49.432;8.680;2023-12-20T04:57:58;1.90;;;1.60;;
10416;SDS011;62605;49.432;8.680;2023-12-20T05:00:25;3.33;;;1.80;;
10416;SDS011;62605;49.432;8.680;2023-12-20T05:02:52;1.80;;;1.50;;
10416;SDS011;62605;49.432;8.680;2023-12-20T05:05:20;2.07;;;1.87;;
10416;SDS011;62605;49.432;8.680;2023-12-20T05:07:47;3.40;;;2.00;;
10416;SDS011;62605;49.432;8.680;2023-12-20T05:10:15;2.60;;;1.90;;
10416;SDS011;62605;49.432;8.680;2023-12-20T05:12:43;4.00;;;1.77;;
10416;SDS011;62605;49.432;8.680;2023-12-20T05:15:16;2.97;;;1.83;;
10416;SDS011;62605;49.432;8.680;2023-12-20T05:17:43;1.87;;;1.53;;
10416;SDS011;62605;49.432;8.680;2023-12-20T05:20:11;3.60;;;2.13;;
10416;SDS011;62605;49.432;8.680;2023-12-20T05:22:38;2.37;;;1.90;;
10416;SDS011;62605;49.432;8.680;2023-12-20T05:25:08;3.27;;;1.90;;
10416;SDS011;62605;49.432;8.680;2023-12-20T05:27:35;2.50;;;2.07;;
10416;SDS011;62605;49.432;8.680;2023-12-20T05:46:04;1.93;;;1.67;;
10416;SDS011;62605;49.432;8.680;2023-12-20T05:48:31;2.43;;;2.07;;
10416;SDS011;62605;49.432;8.680;2023-12-20T05:50:59;3.43;;;2.30;;
10416;SDS011;62605;49.432;8.680;2023-12-20T05:53:29;3.30;;;2.50;;
10416;SDS011;62605;49.432;8.680;2023-12-20T05:55:58;3.47;;;2.17;;
10416;SDS011;62605;49.432;8.680;2023-12-20T05:58:25;2.40;;;2.10;;
10416;SDS011;62605;49.432;8.680;2023-12-20T06:00:54;3.60;;;2.17;;
10416;SDS011;62605;49.432;8.680;2023-12-20T06:03:23;2.33;;;1.87;;
10416;SDS011;62605;49.432;8.680;2023-12-20T06:05:51;3.93;;;2.20;;
10416;SDS011;62605;49.432;8.680;2023-12-20T06:08:18;4.23;;;2.47;;
10416;SDS011;62605;49.432;8.680;2023-12-20T06:10:48;3.00;;;2.20;;
10416;SDS011;62605;49.432;8.680;2023-12-20T06:13:23;1.67;;;1.57;;
10416;SDS011;62605;49.432;8.680;2023-12-20T06:15:50;3.03;;;2.37;;
10416;SDS011;62605;49.432;8.680;2023-12-20T06:18:18;3.63;;;2.43;;
10416;SDS011;62605;49.432;8.680;2023-12-20T06:20:47;3.07;;;2.27;;
10416;SDS011;62605;49.432;8.680;2023-12-20T06:23:21;3.03;;;2.40;;
10416;SDS011;62605;49.432;8.680;2023-12-20T06:25:48;1.63;;;1.53;;
10416;SDS011;62605;49.432;8.680;2023-12-20T06:28:19;2.77;;;2.10;;
10416;SDS011;62605;49.432;8.680;2023-12-20T06:30:46;4.17;;;2.23;;
10416;SDS011;62605;49.432;8.680;2023-12-20T06:33:17;1.57;;;1.47;;
10416;SDS011;62605;49.432;8.680;2023-12-20T06:35:51;1.90;;;1.70;;
10416;SDS011;62605;49.432;8.680;2023-12-20T06:38:24;2.43;;;1.83;;
10416;SDS011;62605;49.432;8.680;2023-12-20T06:41:24;2.10;;;1.90;;
10416;SDS011;62605;49.432;8.680;2023-12-20T06:44:39;1.87;;;1.70;;
10416;SDS011;62605;49.432;8.680;2023-12-20T06:49:13;2.33;;;1.50;;
10416;SDS011;62605;49.432;8.680;2023-12-20T06:50:24;2.57;;;1.50;;
10416;SDS011;62605;49.432;8.680;2023-12-20T06:53:09;2.77;;;2.07;;
10416;SDS011;62605;49.432;8.680;2023-12-20T06:55:38;1.87;;;1.67;;
10416;SDS011;62605;49.432;8.680;2023-12-20T06:58:08;2.00;;;1.80;;
10416;SDS011;62605;49.432;8.680;2023-12-20T07:00:35;2.10;;;1.67;;
10416;SDS011;62605;49.432;8.680;2023-12-20T07:03:05;2.67;;;2.13;;
10416;SDS011;62605;49.432;8.680;2023-12-20T07:05:33;2.30;;;1.80;;
10416;SDS011;62605;49.432;8.680;2023-12-20T07:08:00;2.90;;;2.10;;
10416;SDS011;62605;49.432;8.680;2023-12-20T07:10:28;4.63;;;2.30;;
10416;SDS011;62605;49.432;8.680;2023-12-20T07:12:56;3.87;;;2.50;;
10416;SDS011;62605;49.432;8.680;2023-12-20T07:15:25;2.43;;;1.83;;
10416;SDS011;62605;49.432;8.680;2023-12-20T07:17:54;2.07;;;1.80;;
10416;SDS011;62605;49.432;8.680;2023-12-20T07:20:22;3.67;;;2.70;;
10416;SDS011;62605;49.432;8.680;2023-12-20T07:22:55;3.93;;;1.90;;
10416;SDS011;62605;49.432;8.680;2023-12-20T07:25:23;4.40;;;2.30;;
10416;SDS011;62605;49.432;8.680;2023-12-20T07:27:52;2.17;;;1.87;;
10416;SDS011;62605;49.432;8.680;2023-12-20T07:30:19;3.40;;;2.20;;
10416;SDS011;62605;49.432;8.680;2023-12-20T07:32:48;2.43;;;2.23;;
10416;SDS011;62605;49.432;8.680;2023-12-20T07:35:18;2.37;;;1.90;;
10416;SDS011;62605;49.432;8.680;2023-12-20T07:37:46;2.13;;;1.80;;
10416;SDS011;62605;49.432;8.680;2023-12-20T07:40:13;3.40;;;2.53;;
10416;SDS011;62605;49.432;8.680;2023-12-20T07:42:42;4.70;;;2.07;;
10416;SDS011;62605;49.432;8.680;2023-12-20T07:45:10;3.37;;;2.07;;
10416;SDS011;62605;49.432;8.680;2023-12-20T07:47:38;4.47;;;2.03;;
10416;SDS011;62605;49.432;8.680;2023-12-20T07:50:09;3.00;;;1.70;;
10416;SDS011;62605;49.432;8.680;2023-12-20T07:52:36;2.20;;;2.00;;
10416;SDS011;62605;49.432;8.680;2023-12-20T07:55:03;2.70;;;2.40;;
10416;SDS011;62605;49.432;8.680;2023-12-20T07:57:34;2.23;;;1.50;;
10416;SDS011;62605;49.432;8.680;2023-12-20T08:00:02;4.80;;;2.20;;
10416;SDS011;62605;49.432;8.680;2023-12-20T08:02:33;2.70;;;1.93;;
10416;SDS011;62605;49.432;8.680;2023-12-20T08:05:00;1.67;;;1.57;;
10416;SDS011;62605;49.432;8.680;2023-12-20T08:07:32;3.47;;;2.43;;
10416;SDS011;62605;49.432;8.680;2023-12-20T08:09:59;3.63;;;1.73;;
10416;SDS011;62605;49.432;8.680;2023-12-20T08:12:27;3.07;;;2.17;;
10416;SDS011;62605;49.432;8.680;2023-12-20T08:14:59;4.13;;;1.80;;
10416;SDS011;62605;49.432;8.680;2023-12-20T08:17:31;2.67;;;2.43;;
10416;SDS011;62605;49.432;8.680;2023-12-20T08:19:58;3.67;;;2.83;;
10416;SDS011;62605;49.432;8.680;2023-12-20T08:22:25;2.97;;;2.10;;
10416;SDS011;62605;49.432;8.680;2023-12-20T08:24:52;3.13;;;2.37;;
10416;SDS011;62605;49.432;8.680;2023-12-20T08:27:20;2.67;;;2.30;;
10416;SDS011;62605;49.432;8.680;2023-12-20T08:29:47;2.90;;;2.23;;
10416;SDS011;62605;49.432;8.680;2023-12-20T08:32:15;3.40;;;1.90;;
10416;SDS011;62605;49.432;8.680;2023-12-20T08:34:48;2.80;;;2.10;;
10416;SDS011;62605;49.432;8.680;2023-12-20T08:37:16;2.50;;;1.67;;
10416;SDS011;62605;49.432;8.680;2023-12-20T08:39:46;3.00;;;2.20;;
10416;SDS011;62605;49.432;8.680;2023-12-20T08:42:13;2.03;;;1.80;;
10416;SDS011;62605;49.432;8.680;2023-12-20T08:44:40;3.10;;;2.27;;
10416;SDS011;62605;49.432;8.680;2023-12-20T08:47:07;2.50;;;1.80;;
10416;SDS011;62605;49.432;8.680;2023-12-20T08:49:38;2.37;;;1.70;;
10416;SDS011;62605;49.432;8.680;2023-12-20T08:52:11;2.20;;;1.73;;
10416;SDS011;62605;49.432;8.680;2023-12-20T08:54:40;1.70;;;1.60;;
10416;SDS011;62605;49.432;8.680;2023-12-20T08:57:07;3.60;;;1.47;;
10416;SDS011;62605;49.432;8.680;2023-12-20T08:59:35;2.30;;;1.60;;
10416;SDS011;62605;49.432;8.680;2023-12-20T09:02:05;1.47;;;1.37;;
10416;SDS011;62605;49.432;8.680;2023-12-20T09:04:33;1.93;;;1.10;;
10416;SDS011;62605;49.432;8.680;2023-12-20T09:07:01;2.23;;;1.60;;
10416;SDS011;62605;49.432;8.680;2023-12-20T09:09:30;2.63;;;1.50;;
10416;SDS011;62605;49.432;8.680;2023-12-20T09:11:58;2.33;;;1.40;;
10416;SDS011;62605;49.432;8.680;2023-12-20T09:14:25;0.90;;;0.90;;
10416;SDS011;62605;49.432;8.680;2023-12-20T09:16:52;1.27;;;1.17;;
10416;SDS011;62605;49.432;8.680;2023-12-20T09:19:21;0.90;;;0.90;;
10416;SDS011;62605;49.432;8.680;2023-12-20T09:21:48;1.33;;;1.23;;
10416;SDS011;62605;49.432;8.680;2023-12-20T09:24:15;4.83;;;1.17;;
10416;SDS011;62605;49.432;8.680;2023-12-20T09:26:44;2.97;;;1.57;;
10416;SDS011;62605;49.432;8.680;2023-12-20T09:29:18;1.17;;;0.80;;
10416;SDS011;62605;49.432;8.680;2023-12-20T09:31:51;1.10;;;1.00;;
10416;SDS011;62605;49.432;8.680;2023-12-20T09:37:17;1.87;;;1.20;;
10416;SDS011;62605;49.432;8.680;2023-12-20T09:39:54;0.80;;;0.80;;
10416;SDS011;62605;49.432;8.680;2023-12-20T09:42:28;1.50;;;1.40;;
10416;SDS011;62605;49.432;8.680;2023-12-20T09:45:08;1.47;;;1.37;;
10416;SDS011;62605;49.432;8.680;2023-12-20T09:47:36;1.23;;;1.13;;
10416;SDS011;62605;49.432;8.680;2023-12-20T09:50:18;2.63;;;1.50;;
10416;SDS011;62605;49.432;8.680;2023-12-20T09:53:19;1.50;;;1.27;;
10416;SDS011;62605;49.432;8.680;2023-12-20T09:55:39;2.07;;;1.30;;
10416;SDS011;62605;49.432;8.680;2023-12-20T09:58:09;1.37;;;1.10;;
10416;SDS011;62605;49.432;8.680;2023-12-20T10:00:36;1.20;;;1.10;;
10416;SDS011;62605;49.432;8.680;2023-12-20T10:03:12;1.77;;;1.30;;
10416;SDS011;62605;49.432;8.680;2023-12-20T10:05:47;2.03;;;1.40;;
10416;SDS011;62605;49.432;8.680;2023-12-20T10:08:17;2.37;;;1.13;;
10416;SDS011;62605;49.432;8.680;2023-12-20T10:10:50;1.63;;;0.97;;
10416;SDS011;62605;49.432;8.680;2023-12-20T10:13:19;0.93;;;0.93;;
10416;SDS011;62605;49.432;8.680;2023-12-20T10:15:49;1.67;;;1.37;;
10416;SDS011;62605;49.432;8.680;2023-12-20T10:18:16;2.07;;;1.17;;
10416;SDS011;62605;49.432;8.680;2023-12-20T10:20:49;2.10;;;1.03;;
10416;SDS011;62605;49.432;8.680;2023-12-20T10:23:16;1.37;;;1.10;;
10416;SDS011;62605;49.432;8.680;2023-12-20T10:25:49;4.03;;;1.73;;
10416;SDS011;62605;49.432;8.680;2023-12-20T10:28:24;1.63;;;1.13;;
10416;SDS011;62605;49.432;8.680;2023-12-20T10:30:53;1.07;;;1.00;;
10416;SDS011;62605;49.432;8.680;2023-12-20T10:33:38;2.13;;;0.90;;
10416;SDS011;62605;49.432;8.680;2023-12-20T10:36:16;2.80;;;1.20;;
10416;SDS011;62605;49.432;8.680;2023-12-20T10:38:43;1.73;;;1.00;;
10416;SDS011;62605;49.432;8.680;2023-12-20T10:41:12;1.07;;;0.70;;
10416;SDS011;62605;49.432;8.680;2023-12-20T10:43:44;1.93;;;1.00;;
10416;SDS011;62605;49.432;8.680;2023-12-20T10:46:17;0.60;;;0.60;;
10416;SDS011;62605;49.432;8.680;2023-12-20T10:48:45;1.70;;;1.30;;
10416;SDS011;62605;49.432;8.680;2023-12-20T10:51:18;0.80;;;0.80;;
10416;SDS011;62605;49.432;8.680;2023-12-20T10:53:46;2.63;;;1.20;;
10416;SDS011;62605;49.432;8.680;2023-12-20T10:56:15;1.90;;;1.00;;
10416;SDS011;62605;49.432;8.680;2023-12-20T10:58:44;0.70;;;0.70;;
10416;SDS011;62605;49.432;8.680;2023-12-20T11:01:12;3.63;;;1.03;;
10416;SDS011;62605;49.432;8.680;2023-12-20T11:03:42;2.23;;;1.00;;
10416;SDS011;62605;49.432;8.680;2023-12-20T11:06:15;3.70;;;0.80;;
10416;SDS011;62605;49.432;8.680;2023-12-20T11:08:57;2.53;;;1.00;;
10416;SDS011;62605;49.432;8.680;2023-12-20T11:11:35;2.57;;;0.83;;
10416;SDS011;62605;49.432;8.680;2023-12-20T11:14:11;1.73;;;0.83;;
10416;SDS011;62605;49.432;8.680;2023-12-20T11:16:42;1.30;;;1.10;;
10416;SDS011;62605;49.432;8.680;2023-12-20T11:19:09;1.03;;;0.63;;
10416;SDS011;62605;49.432;8.680;2023-12-20T11:21:39;3.97;;;1.03;;
10416;SDS011;62605;49.432;8.680;2023-12-20T11:24:07;4.40;;;1.27;;
10416;SDS011;62605;49.432;8.680;2023-12-20T11:26:34;2.40;;;1.03;;
10416;SDS011;62605;49.432;8.680;2023-12-20T11:32:01;1.07;;;0.83;;
10416;SDS011;62605;49.432;8.680;2023-12-20T11:34:31;0.87;;;0.80;;
10416;SDS011;62605;49.432;8.680;2023-12-20T11:36:59;1.30;;;1.17;;
10416;SDS011;62605;49.432;8.680;2023-12-20T11:39:27;3.73;;;1.27;;
10416;SDS011;62605;49.432;8.680;2023-12-20T11:41:55;1.50;;;1.40;;
10416;SDS011;62605;49.432;8.680;2023-12-20T11:44:25;1.70;;;1.60;;
10416;SDS011;62605;49.432;8.680;2023-12-20T11:46:54;1.67;;;1.27;;
10416;SDS011;62605;49.432;8.680;2023-12-20T11:49:24;3.00;;;1.10;;
10416;SDS011;62605;49.432;8.680;2023-12-20T11:51:51;1.47;;;0.97;;
10416;SDS011;62605;49.432;8.680;2023-12-20T11:54:18;1.10;;;1.00;;
10416;SDS011;62605;49.432;8.680;2023-12-20T11:56:45;1.70;;;0.83;;
10416;SDS011;62605;49.432;8.680;2023-12-20T11:59:13;0.80;;;0.70;;
10416;SDS011;62605;49.432;8.680;2023-12-20T12:01:47;2.00;;;1.40;;
10416;SDS011;62605;49.432;8.680;2023-12-20T12:04:19;0.80;;;0.80;;
10416;SDS011;62605;49.432;8.680;2023-12-20T12:06:46;4.33;;;0.90;;
10416;SDS011;62605;49.432;8.680;2023-12-20T12:09:13;1.90;;;1.07;;
10416;SDS011;62605;49.432;8.680;2023-12-20T12:11:41;1.20;;;1.10;;
10416;SDS011;62605;49.432;8.680;2023-12-20T12:14:08;2.30;;;1.13;;
10416;SDS011;62605;49.432;8.680;2023-12-20T12:16:36;1.30;;;1.20;;
10416;SDS011;62605;49.432;8.680;2023-12-20T12:19:05;4.73;;;1.40;;
10416;SDS011;62605;49.432;8.680;2023-12-20T12:21:33;3.87;;;1.00;;
10416;SDS011;62605;49.432;8.680;2023-12-20T12:24:07;4.20;;;1.30;;
10416;SDS011;62605;49.432;8.680;2023-12-20T12:26:34;5.93;;;1.70;;
10416;SDS011;62605;49.432;8.680;2023-12-20T12:29:01;1.30;;;1.20;;
10416;SDS011;62605;49.432;8.680;2023-12-20T12:31:28;4.03;;;1.43;;
10416;SDS011;62605;49.432;8.680;2023-12-20T12:33:56;7.03;;;2.60;;
10416;SDS011;62605;49.432;8.680;2023-12-20T12:36:23;2.53;;;1.90;;
10416;SDS011;62605;49.432;8.680;2023-12-20T12:38:51;2.47;;;1.63;;
10416;SDS011;62605;49.432;8.680;2023-12-20T12:41:19;1.47;;;1.33;;
10416;SDS011;62605;49.432;8.680;2023-12-20T12:43:46;1.33;;;1.23;;
10416;SDS011;62605;49.432;8.680;2023-12-20T12:46:13;5.23;;;1.40;;
10416;SDS011;62605;49.432;8.680;2023-12-20T12:48:40;2.10;;;1.40;;
10416;SDS011;62605;49.432;8.680;2023-12-20T12:51:07;6.57;;;1.67;;
10416;SDS011;62605;49.432;8.680;2023-12-20T12:53:38;3.30;;;1.70;;
10416;SDS011;62605;49.432;8.680;2023-12-20T12:56:07;2.77;;;1.67;;
10416;SDS011;62605;49.432;8.680;2023-12-20T12:58:34;2.47;;;0.90;;
10416;SDS011;62605;49.432;8.680;2023-12-20T13:01:01;2.63;;;1.63;;
10416;SDS011;62605;49.432;8.680;2023-12-20T13:03:29;2.30;;;1.10;;
10416;SDS011;62605;49.432;8.680;2023-12-20T13:05:56;1.50;;;1.40;;
10416;SDS011;62605;49.432;8.680;2023-12-20T13:08:23;4.30;;;3.17;;
10416;SDS011;62605;49.432;8.680;2023-12-20T13:10:51;14.43;;;5.27;;
10416;SDS011;62605;49.432;8.680;2023-12-20T13:13:19;7.83;;;3.10;;
10416;SDS011;62605;49.432;8.680;2023-12-20T13:15:46;10.43;;;3.33;;
10416;SDS011;62605;49.432;8.680;2023-12-20T13:18:17;14.47;;;6.57;;
10416;SDS011;62605;49.432;8.680;2023-12-20T13:20:48;5.30;;;2.60;;
10416;SDS011;62605;49.432;8.680;2023-12-20T13:23:15;2.93;;;1.47;;
10416;SDS011;62605;49.432;8.680;2023-12-20T13:25:43;3.50;;;1.33;;
10416;SDS011;62605;49.432;8.680;2023-12-20T13:28:10;2.33;;;0.80;;
10416;SDS011;62605;49.432;8.680;2023-12-20T13:30:39;1.17;;;1.07;;
10416;SDS011;62605;49.432;8.680;2023-12-20T13:33:07;1.17;;;1.13;;
10416;SDS011;62605;49.432;8.680;2023-12-20T13:35:34;1.10;;;1.10;;
10416;SDS011;62605;49.432;8.680;2023-12-20T13:38:01;0.97;;;0.97;;
10416;SDS011;62605;49.432;8.680;2023-12-20T13:40:28;0.70;;;0.70;;
10416;SDS011;62605;49.432;8.680;2023-12-20T13:42:55;4.30;;;1.47;;
10416;SDS011;62605;49.432;8.680;2023-12-20T13:45:22;1.27;;;1.13;;
10416;SDS011;62605;49.432;8.680;2023-12-20T13:47:51;3.40;;;1.17;;
10416;SDS011;62605;49.432;8.680;2023-12-20T13:50:18;5.20;;;1.13;;
10416;SDS011;62605;49.432;8.680;2023-12-20T13:52:45;1.17;;;1.00;;
10416;SDS011;62605;49.432;8.680;2023-12-20T13:55:13;1.73;;;1.10;;
10416;SDS011;62605;49.432;8.680;2023-12-20T13:57:40;2.00;;;0.97;;
10416;SDS011;62605;49.432;8.680;2023-12-20T14:00:07;1.03;;;0.93;;
10416;SDS011;62605;49.432;8.680;2023-12-20T14:02:40;0.90;;;0.90;;
10416;SDS011;62605;49.432;8.680;2023-12-20T14:05:09;2.10;;;1.13;;
10416;SDS011;62605;49.432;8.680;2023-12-20T14:07:36;1.30;;;1.20;;
10416;SDS011;62605;49.432;8.680;2023-12-20T14:10:03;3.87;;;1.10;;
10416;SDS011;62605;49.432;8.680;2023-12-20T14:12:32;1.60;;;1.10;;
10416;SDS011;62605;49.432;8.680;2023-12-20T14:15:03;2.73;;;1.17;;
10416;SDS011;62605;49.432;8.680;2023-12-20T14:17:34;1.83;;;1.23;;
10416;SDS011;62605;49.432;8.680;2023-12-20T14:20:01;2.60;;;1.40;;
10416;SDS011;62605;49.432;8.680;2023-12-20T14:22:34;3.27;;;1.43;;
10416;SDS011;62605;49.432;8.680;2023-12-20T14:25:04;1.33;;;1.13;;
10416;SDS011;62605;49.432;8.680;2023-12-20T14:27:32;1.43;;;1.00;;
10416;SDS011;62605;49.432;8.680;2023-12-20T14:29:59;3.60;;;1.53;;
10416;SDS011;62605;49.432;8.680;2023-12-20T14:32:26;1.43;;;1.13;;
10416;SDS011;62605;49.432;8.680;2023-12-20T14:34:53;2.30;;;1.20;;
10416;SDS011;62605;49.432;8.680;2023-12-20T14:37:26;3.03;;;1.10;;
10416;SDS011;62605;49.432;8.680;2023-12-20T14:39:55;3.93;;;1.40;;
10416;SDS011;62605;49.432;8.680;2023-12-20T14:42:22;2.20;;;1.57;;
10416;SDS011;62605;49.432;8.680;2023-12-20T14:44:49;1.23;;;1.13;;
10416;SDS011;62605;49.432;8.680;2023-12-20T14:47:19;1.13;;;0.87;;
10416;SDS011;62605;49.432;8.680;2023-12-20T14:49:50;1.37;;;1.00;;
10416;SDS011;62605;49.432;8.680;2023-12-20T14:52:17;3.13;;;0.97;;
10416;SDS011;62605;49.432;8.680;2023-12-20T14:54:48;2.93;;;1.50;;
10416;SDS011;62605;49.432;8.680;2023-12-20T14:57:17;3.57;;;1.57;;
10416;SDS011;62605;49.432;8.680;2023-12-20T14:59:44;1.53;;;0.90;;
10416;SDS011;62605;49.432;8.680;2023-12-20T15:02:12;0.90;;;0.90;;
10416;SDS011;62605;49.432;8.680;2023-12-20T15:04:40;3.20;;;1.10;;
10416;SDS011;62605;49.432;8.680;2023-12-20T15:07:08;5.57;;;1.40;;
10416;SDS011;62605;49.432;8.680;2023-12-20T15:09:35;1.57;;;1.47;;
10416;SDS011;62605;49.432;8.680;2023-12-20T15:12:06;3.87;;;1.30;;
10416;SDS011;62605;49.432;8.680;2023-12-20T15:14:36;1.83;;;1.43;;
10416;SDS011;62605;49.432;8.680;2023-12-20T15:17:03;2.13;;;0.97;;
10416;SDS011;62605;49.432;8.680;2023-12-20T15:19:30;3.37;;;1.27;;
10416;SDS011;62605;49.432;8.680;2023-12-20T15:21:59;1.03;;;0.97;;
10416;SDS011;62605;49.432;8.680;2023-12-20T15:24:33;1.83;;;0.90;;
10416;SDS011;62605;49.432;8.680;2023-12-20T15:27:04;1.43;;;0.87;;
10416;SDS011;62605;49.432;8.680;2023-12-20T15:29:31;1.53;;;0.97;;
10416;SDS011;62605;49.432;8.680;2023-12-20T15:32:01;1.73;;;0.90;;
10416;SDS011;62605;49.432;8.680;2023-12-20T15:34:28;3.77;;;1.33;;
10416;SDS011;62605;49.432;8.680;2023-12-20T15:36:56;1.00;;;0.90;;
10416;SDS011;62605;49.432;8.680;2023-12-20T15:39:24;2.17;;;1.20;;
10416;SDS011;62605;49.432;8.680;2023-12-20T15:41:51;0.77;;;0.77;;
10416;SDS011;62605;49.432;8.680;2023-12-20T15:44:19;3.70;;;1.93;;
10416;SDS011;62605;49.432;8.680;2023-12-20T15:46:46;1.97;;;0.70;;
10416;SDS011;62605;49.432;8.680;2023-12-20T15:49:15;1.57;;;1.10;;
10416;SDS011;62605;49.432;8.680;2023-12-20T15:51:44;1.27;;;0.93;;
10416;SDS011;62605;49.432;8.680;2023-12-20T15:54:11;1.03;;;0.87;;
10416;SDS011;62605;49.432;8.680;2023-12-20T15:56:38;4.70;;;1.07;;
10416;SDS011;62605;49.432;8.680;2023-12-20T15:59:06;2.80;;;0.93;;
10416;SDS011;62605;49.432;8.680;2023-12-20T16:01:35;3.50;;;1.57;;
10416;SDS011;62605;49.432;8.680;2023-12-20T16:04:02;5.93;;;1.43;;
10416;SDS011;62605;49.432;8.680;2023-12-20T16:06:32;2.87;;;1.27;;
10416;SDS011;62605;49.432;8.680;2023-12-20T16:09:01;2.53;;;0.97;;
10416;SDS011;62605;49.432;8.680;2023-12-20T16:11:29;0.80;;;0.80;;
10416;SDS011;62605;49.432;8.680;2023-12-20T16:13:56;3.57;;;1.73;;
10416;SDS011;62605;49.432;8.680;2023-12-20T16:16:29;6.07;;;1.70;;
10416;SDS011;62605;49.432;8.680;2023-12-20T16:18:56;2.10;;;1.07;;
10416;SDS011;62605;49.432;8.680;2023-12-20T16:21:23;2.27;;;1.30;;
10416;SDS011;62605;49.432;8.680;2023-12-20T16:23:52;4.00;;;1.20;;
10416;SDS011;62605;49.432;8.680;2023-12-20T16:26:19;1.57;;;1.07;;
10416;SDS011;62605;49.432;8.680;2023-12-20T16:28:47;0.57;;;0.50;;
10416;SDS011;62605;49.432;8.680;2023-12-20T16:31:15;7.33;;;1.03;;
10416;SDS011;62605;49.432;8.680;2023-12-20T16:33:43;2.13;;;0.90;;
10416;SDS011;62605;49.432;8.680;2023-12-20T16:36:10;1.50;;;1.13;;
10416;SDS011;62605;49.432;8.680;2023-12-20T16:38:37;6.23;;;1.57;;
10416;SDS011;62605;49.432;8.680;2023-12-20T16:41:06;0.80;;;0.80;;
10416;SDS011;62605;49.432;8.680;2023-12-20T16:43:33;1.53;;;1.17;;
10416;SDS011;62605;49.432;8.680;2023-12-20T16:46:00;2.77;;;1.50;;
10416;SDS011;62605;49.432;8.680;2023-12-20T16:48:28;5.00;;;0.90;;
10416;SDS011;62605;49.432;8.680;2023-12-20T16:50:58;1.20;;;1.10;;
10416;SDS011;62605;49.432;8.680;2023-12-20T16:53:25;3.00;;;1.10;;
10416;SDS011;62605;49.432;8.680;2023-12-20T16:55:53;1.30;;;1.07;;
10416;SDS011;62605;49.432;8.680;2023-12-20T16:58:21;3.00;;;1.83;;
10416;SDS011;62605;49.432;8.680;2023-12-20T17:00:48;4.97;;;1.60;;
10416;SDS011;62605;49.432;8.680;2023-12-20T17:03:16;5.50;;;1.27;;
10416;SDS011;62605;49.432;8.680;2023-12-20T17:05:45;1.73;;;0.90;;
10416;SDS011;62605;49.432;8.680;2023-12-20T17:08:12;2.23;;;1.07;;
10416;SDS011;62605;49.432;8.680;2023-12-20T17:10:39;0.70;;;0.70;;
10416;SDS011;62605;49.432;8.680;2023-12-20T17:13:06;3.73;;;1.90;;
10416;SDS011;62605;49.432;8.680;2023-12-20T17:15:35;1.53;;;1.43;;
10416;SDS011;62605;49.432;8.680;2023-12-20T17:18:03;3.20;;;1.50;;
10416;SDS011;62605;49.432;8.680;2023-12-20T17:20:31;2.37;;;1.43;;
10416;SDS011;62605;49.432;8.680;2023-12-20T17:22:58;0.83;;;0.77;;
10416;SDS011;62605;49.432;8.680;2023-12-20T17:25:25;4.97;;;1.27;;
10416;SDS011;62605;49.432;8.680;2023-12-20T17:27:53;2.30;;;1.53;;
10416;SDS011;62605;49.432;8.680;2023-12-20T17:30:21;2.60;;;0.90;;
10416;SDS011;62605;49.432;8.680;2023-12-20T17:32:50;1.10;;;0.90;;
10416;SDS011;62605;49.432;8.680;2023-12-20T17:35:17;3.30;;;1.00;;
10416;SDS011;62605;49.432;8.680;2023-12-20T17:37:45;8.07;;;1.20;;